createdAt,value
2022-09-04T00:00:12.275Z,12.97
2022-09-04T00:03:39.693Z,12.94
2022-09-04T00:06:22.765Z,12.92
2022-09-04T00:09:20.336Z,12.91
2022-09-04T00:12:02.327Z,12.88
2022-09-04T00:14:48.500Z,12.86
2022-09-04T00:17:28.313Z,12.84
2022-09-04T00:20:27.065Z,12.84
2022-09-04T00:23:06.087Z,12.81
2022-09-04T00:25:58.198Z,12.78
2022-09-04T00:28:38.673Z,12.75
2022-09-04T00:31:13.706Z,12.73
2022-09-04T00:33:54.056Z,12.73
2022-09-04T00:36:24.348Z,12.73
2022-09-04T00:38:57.862Z,12.71
2022-09-04T00:41:49.849Z,12.70
2022-09-04T00:44:26.611Z,12.68
2022-09-04T00:47:48.872Z,12.66
2022-09-04T00:51:04.025Z,12.61
2022-09-04T00:53:51.954Z,12.59
2022-09-04T00:56:41.224Z,12.57
2022-09-04T00:59:34.033Z,12.54
2022-09-04T01:02:36.233Z,12.49
2022-09-04T01:05:22.373Z,12.45
2022-09-04T01:07:57.861Z,12.42
2022-09-04T01:10:35.542Z,12.38
2022-09-04T01:13:13.034Z,12.34
2022-09-04T01:15:45.009Z,12.31
2022-09-04T01:18:38.401Z,12.28
2022-09-04T01:21:37.160Z,12.22
2022-09-04T01:24:29.765Z,12.14
2022-09-04T01:27:22.035Z,12.07
2022-09-04T01:30:11.982Z,12.02
2022-09-04T01:32:51.337Z,11.97
2022-09-04T01:35:31.254Z,11.93
2022-09-04T01:38:14.243Z,11.91
2022-09-04T01:40:45.140Z,11.89
2022-09-04T01:43:22.981Z,11.87
2022-09-04T01:46:12.231Z,11.86
2022-09-04T01:48:57.916Z,11.83
2022-09-04T01:51:40.108Z,11.81
2022-09-04T01:54:20.016Z,11.79
2022-09-04T01:57:09.745Z,11.78
2022-09-04T02:00:22.912Z,11.78
2022-09-04T02:03:02.453Z,11.77
2022-09-04T02:05:55.343Z,11.76
2022-09-04T02:08:36.001Z,11.75
2022-09-04T02:11:17.426Z,11.74
2022-09-04T02:14:10.021Z,11.72
2022-09-04T02:16:43.918Z,11.72
2022-09-04T02:19:27.218Z,11.73
2022-09-04T02:22:21.086Z,11.72
2022-09-04T02:25:12.892Z,11.70
2022-09-04T02:28:11.822Z,11.68
2022-09-04T02:30:54.235Z,11.67
2022-09-04T02:33:41.226Z,11.66
2022-09-04T02:36:24.420Z,11.65
2022-09-04T02:38:55.162Z,11.62
2022-09-04T02:41:42.336Z,11.60
2022-09-04T02:44:30.585Z,11.58
2022-09-04T02:47:35.747Z,11.58
2022-09-04T02:50:34.245Z,11.58
2022-09-04T02:53:23.804Z,11.59
2022-09-04T02:56:19.234Z,11.61
2022-09-04T02:59:06.349Z,11.58
2022-09-04T03:01:52.114Z,11.55
2022-09-04T03:04:50.097Z,11.52
2022-09-04T03:07:33.677Z,11.49
2022-09-04T03:10:14.999Z,11.43
2022-09-04T03:13:05.533Z,11.33
2022-09-04T03:15:41.540Z,11.26
2022-09-04T03:18:30.298Z,11.20
2022-09-04T03:21:11.139Z,11.14
2022-09-04T03:24:17.935Z,11.09
2022-09-04T03:26:52.989Z,11.06
2022-09-04T03:29:26.930Z,11.04
2022-09-04T03:32:28.343Z,11.03
2022-09-04T03:34:56.210Z,11.02
2022-09-04T03:37:47.183Z,11.04
2022-09-04T03:40:50.261Z,11.04
2022-09-04T03:43:39.230Z,11.06
2022-09-04T03:46:34.767Z,11.07
2022-09-04T03:49:34.433Z,11.06
2022-09-04T03:52:22.073Z,11.08
2022-09-04T03:54:56.780Z,11.07
2022-09-04T03:57:30.445Z,11.06
2022-09-04T04:00:10.969Z,11.08
2022-09-04T04:03:07.352Z,11.09
2022-09-04T04:05:53.450Z,11.11
2022-09-04T04:08:37.454Z,11.12
2022-09-04T04:11:24.647Z,11.14
2022-09-04T04:13:58.560Z,11.14
2022-09-04T04:16:48.006Z,11.15
2022-09-04T04:19:53.334Z,11.15
2022-09-04T04:23:10.957Z,11.16
2022-09-04T04:26:06.894Z,11.15
2022-09-04T04:28:51.814Z,11.15
2022-09-04T04:31:37.609Z,11.16
2022-09-04T04:34:38.365Z,11.18
2022-09-04T04:37:17.195Z,11.23
2022-09-04T04:40:02.980Z,11.28
2022-09-04T04:42:33.793Z,11.33
2022-09-04T04:45:41.599Z,11.37
2022-09-04T04:48:47.582Z,11.38
2022-09-04T04:51:18.698Z,11.44
2022-09-04T04:54:26.546Z,11.47
2022-09-04T04:57:09.872Z,11.52
2022-09-04T04:59:47.882Z,11.56
2022-09-04T05:02:28.901Z,11.62
2022-09-04T05:05:41.875Z,11.70
2022-09-04T05:08:15.971Z,11.80
2022-09-04T05:11:01.014Z,11.88
2022-09-04T05:14:03.041Z,12.22
2022-09-04T05:16:58.804Z,13.14
2022-09-04T05:19:31.256Z,14.08
2022-09-04T05:22:04.916Z,14.77
2022-09-04T05:24:39.149Z,15.12
2022-09-04T05:27:31.728Z,15.25
2022-09-04T05:30:13.855Z,15.35
2022-09-04T05:33:08.931Z,15.57
2022-09-04T05:35:54.766Z,15.88
2022-09-04T05:39:09.627Z,16.24
2022-09-04T05:42:06.910Z,16.66
2022-09-04T05:44:52.753Z,17.19
2022-09-04T05:47:20.580Z,17.79
2022-09-04T05:49:54.637Z,18.29
2022-09-04T05:52:52.052Z,18.88
2022-09-04T05:55:32.214Z,19.46
2022-09-04T05:58:17.247Z,19.84
2022-09-04T06:01:28.457Z,20.12
2022-09-04T06:04:22.323Z,20.24
2022-09-04T06:07:08.965Z,20.11
2022-09-04T06:09:50.010Z,20.54
2022-09-04T06:12:50.141Z,20.54
2022-09-04T06:15:43.428Z,20.48
2022-09-04T06:18:37.458Z,19.80
2022-09-04T06:21:17.598Z,19.32
2022-09-04T06:23:51.433Z,18.87
2022-09-04T06:26:34.403Z,18.32
2022-09-04T06:29:05.467Z,18.60
2022-09-04T06:31:56.875Z,19.01
2022-09-04T06:34:51.449Z,19.21
2022-09-04T06:37:30.442Z,19.42
2022-09-04T06:40:13.410Z,19.72
2022-09-04T06:42:52.472Z,19.93
2022-09-04T06:45:42.635Z,20.36
2022-09-04T06:48:32.070Z,20.66
2022-09-04T06:51:12.172Z,20.73
2022-09-04T06:53:46.161Z,20.48
2022-09-04T06:56:30.056Z,20.22
2022-09-04T06:59:06.801Z,20.13
2022-09-04T07:02:24.963Z,20.02
2022-09-04T07:04:56.196Z,19.86
2022-09-04T07:07:33.250Z,19.88
2022-09-04T07:10:10.923Z,19.62
2022-09-04T07:13:09.574Z,19.66
2022-09-04T07:15:57.506Z,19.95
2022-09-04T07:18:34.514Z,19.99
2022-09-04T07:21:17.481Z,19.79
2022-09-04T07:23:51.194Z,19.49
2022-09-04T07:26:28.704Z,19.29
2022-09-04T07:29:23.830Z,19.40
2022-09-04T07:32:12.745Z,19.64
2022-09-04T07:35:01.826Z,19.81
2022-09-04T07:37:58.807Z,19.83
2022-09-04T07:40:38.404Z,19.85
2022-09-04T07:43:13.110Z,19.77
2022-09-04T07:45:51.292Z,19.78
2022-09-04T07:48:50.501Z,19.75
2022-09-04T07:51:26.269Z,19.76
2022-09-04T07:54:18.724Z,19.85
2022-09-04T07:57:01.014Z,19.99
2022-09-04T08:00:02.223Z,20.20
2022-09-04T08:03:04.651Z,20.43
2022-09-04T08:05:41.325Z,20.21
2022-09-04T08:08:20.087Z,20.16
2022-09-04T08:11:02.956Z,20.14
2022-09-04T08:13:49.391Z,20.04
2022-09-04T08:16:32.405Z,19.94
2022-09-04T08:19:32.187Z,19.78
2022-09-04T08:22:03.255Z,19.59
2022-09-04T08:24:57.377Z,19.61
2022-09-04T08:27:44.210Z,19.48
2022-09-04T08:30:15.283Z,19.19
2022-09-04T08:33:01.391Z,19.06
2022-09-04T08:36:00.940Z,19.03
2022-09-04T08:38:55.669Z,18.96
2022-09-04T08:41:29.572Z,18.83
2022-09-04T08:44:27.231Z,18.91
2022-09-04T08:47:13.423Z,19.01
2022-09-04T08:50:02.743Z,19.01
2022-09-04T08:52:36.545Z,18.87
2022-09-04T08:55:05.849Z,18.98
2022-09-04T08:57:33.665Z,19.21
2022-09-04T09:00:10.036Z,19.28
2022-09-04T09:02:53.115Z,19.24
2022-09-04T09:05:39.476Z,19.20
2022-09-04T09:08:29.694Z,19.28
2022-09-04T09:11:43.459Z,19.55
2022-09-04T09:14:43.457Z,19.84
2022-09-04T09:17:14.163Z,19.93
2022-09-04T09:19:45.427Z,20.11
2022-09-04T09:22:29.446Z,20.23
2022-09-04T09:25:23.657Z,20.40
2022-09-04T09:28:13.244Z,20.48
2022-09-04T09:30:51.572Z,20.53
2022-09-04T09:33:40.247Z,20.55
2022-09-04T09:36:16.209Z,20.53
2022-09-04T09:39:05.837Z,20.51
2022-09-04T09:41:39.873Z,20.45
2022-09-04T09:44:29.482Z,20.43
2022-09-04T09:47:03.378Z,20.49
2022-09-04T09:50:02.012Z,20.47
2022-09-04T09:52:42.101Z,20.42
2022-09-04T09:55:31.785Z,20.50
2022-09-04T09:58:23.623Z,20.59
2022-09-04T10:01:16.278Z,20.59
2022-09-04T10:04:15.532Z,20.66
2022-09-04T10:06:44.824Z,20.69
2022-09-04T10:09:46.647Z,20.69
2022-09-04T10:12:36.100Z,20.68
2022-09-04T10:15:04.194Z,20.71
2022-09-04T10:18:00.436Z,20.68
2022-09-04T10:20:31.501Z,20.50
2022-09-04T10:23:05.594Z,20.69
2022-09-04T10:25:55.569Z,20.85
2022-09-04T10:29:01.586Z,20.93
2022-09-04T10:31:52.873Z,21.11
2022-09-04T10:34:55.703Z,21.35
2022-09-04T10:37:29.576Z,21.44
2022-09-04T10:40:18.816Z,21.60
2022-09-04T10:43:15.111Z,21.74
2022-09-04T10:45:48.167Z,21.72
2022-09-04T10:48:29.693Z,21.81
2022-09-04T10:51:04.491Z,21.94
2022-09-04T10:53:42.050Z,22.16
2022-09-04T10:56:18.268Z,22.23
2022-09-04T10:59:17.180Z,22.27
2022-09-04T11:01:54.975Z,22.40
2022-09-04T11:05:00.139Z,22.50
2022-09-04T11:07:34.117Z,22.40
2022-09-04T11:10:20.451Z,22.31
2022-09-04T11:13:09.405Z,22.23
2022-09-04T11:15:52.637Z,22.09
2022-09-04T11:18:40.779Z,22.00
2022-09-04T11:21:43.450Z,22.02
2022-09-04T11:24:33.592Z,22.05
2022-09-04T11:27:13.840Z,22.00
2022-09-04T11:30:14.165Z,21.97
2022-09-04T11:33:10.198Z,21.98
2022-09-04T11:35:59.533Z,21.95
2022-09-04T11:38:58.370Z,21.87
2022-09-04T11:41:43.489Z,21.85
2022-09-04T11:44:46.430Z,21.90
2022-09-04T11:47:31.118Z,21.91
2022-09-04T11:50:16.626Z,21.77
2022-09-04T11:52:56.763Z,21.73
2022-09-04T11:55:35.199Z,21.79
2022-09-04T11:58:47.930Z,21.93
2022-09-04T12:01:47.649Z,22.13
2022-09-04T12:04:30.459Z,22.19
2022-09-04T12:07:25.975Z,22.23
2022-09-04T12:10:02.908Z,22.37
2022-09-04T12:12:43.287Z,22.45
2022-09-04T12:15:58.965Z,22.50
2022-09-04T12:18:55.051Z,22.51
2022-09-04T12:21:42.212Z,22.60
2022-09-04T12:24:22.219Z,22.70
2022-09-04T12:26:59.957Z,22.80
2022-09-04T12:29:46.006Z,22.84
2022-09-04T12:32:47.184Z,22.83
2022-09-04T12:35:44.112Z,22.79
2022-09-04T12:38:25.023Z,22.72
2022-09-04T12:41:07.507Z,22.72
2022-09-04T12:43:53.791Z,22.58
2022-09-04T12:46:40.473Z,22.39
2022-09-04T12:49:33.226Z,22.36
2022-09-04T12:52:03.465Z,22.38
2022-09-04T12:54:44.017Z,22.39
2022-09-04T12:57:26.803Z,22.47
2022-09-04T13:00:01.275Z,22.55
2022-09-04T13:02:54.839Z,22.67
2022-09-04T13:05:36.914Z,22.72
2022-09-04T13:08:42.435Z,22.68
2022-09-04T13:11:40.444Z,22.66
2022-09-04T13:14:43.878Z,22.61
2022-09-04T13:17:36.245Z,22.52
2022-09-04T13:20:54.751Z,22.53
2022-09-04T13:23:52.875Z,22.65
2022-09-04T13:26:34.543Z,22.82
2022-09-04T13:29:26.854Z,22.88
2022-09-04T13:32:25.366Z,22.95
2022-09-04T13:35:16.078Z,22.81
2022-09-04T13:38:06.236Z,22.87
2022-09-04T13:40:55.042Z,22.99
2022-09-04T13:43:55.089Z,23.09
2022-09-04T13:46:36.548Z,23.09
2022-09-04T13:49:14.983Z,22.95
2022-09-04T13:51:51.867Z,22.97
2022-09-04T13:54:52.793Z,22.95
2022-09-04T13:57:28.058Z,22.88
2022-09-04T14:00:03.860Z,22.75
2022-09-04T14:02:32.453Z,22.67
2022-09-04T14:05:11.662Z,22.52
2022-09-04T14:07:46.660Z,22.37
2022-09-04T14:10:20.729Z,22.31
2022-09-04T14:12:57.775Z,22.24
2022-09-04T14:15:48.497Z,22.14
2022-09-04T14:18:45.683Z,22.01
2022-09-04T14:21:25.838Z,22.01
2022-09-04T14:24:14.916Z,22.08
2022-09-04T14:26:44.453Z,22.13
2022-09-04T14:29:36.800Z,22.13
2022-09-04T14:32:18.892Z,22.13
2022-09-04T14:35:10.490Z,22.07
2022-09-04T14:38:14.501Z,22.05
2022-09-04T14:41:10.898Z,22.11
2022-09-04T14:44:07.069Z,22.08
2022-09-04T14:47:25.513Z,21.94
2022-09-04T14:50:01.656Z,21.78
2022-09-04T14:52:41.552Z,21.65
2022-09-04T14:55:17.438Z,21.59
2022-09-04T14:57:59.570Z,21.55
2022-09-04T15:00:29.761Z,21.54
2022-09-04T15:03:07.828Z,21.52
2022-09-04T15:05:53.584Z,21.48
2022-09-04T15:08:40.547Z,21.42
2022-09-04T15:11:14.259Z,21.38
2022-09-04T15:13:54.683Z,21.37
2022-09-04T15:16:29.575Z,21.38
2022-09-04T15:19:01.142Z,21.41
2022-09-04T15:21:43.837Z,21.36
2022-09-04T15:24:38.839Z,21.35
2022-09-04T15:27:35.148Z,21.32
2022-09-04T15:30:17.148Z,21.32
2022-09-04T15:32:47.123Z,21.36
2022-09-04T15:35:32.696Z,21.36
2022-09-04T15:38:06.152Z,21.32
2022-09-04T15:40:59.699Z,21.29
2022-09-04T15:43:37.233Z,21.22
2022-09-04T15:46:36.698Z,21.18
2022-09-04T15:49:42.275Z,21.19
2022-09-04T15:52:38.145Z,21.24
2022-09-04T15:55:26.360Z,21.25
2022-09-04T15:58:25.218Z,21.28
2022-09-04T16:01:06.561Z,21.29
2022-09-04T16:04:07.419Z,21.23
2022-09-04T16:06:49.654Z,21.14
2022-09-04T16:09:44.234Z,21.07
2022-09-04T16:12:15.253Z,20.98
2022-09-04T16:15:00.286Z,20.89
2022-09-04T16:17:34.222Z,20.82
2022-09-04T16:20:27.793Z,20.77
2022-09-04T16:23:00.832Z,20.71
2022-09-04T16:25:29.437Z,20.63
2022-09-04T16:28:15.385Z,20.55
2022-09-04T16:30:47.989Z,20.48
2022-09-04T16:33:28.171Z,20.41
2022-09-04T16:36:05.066Z,20.36
2022-09-04T16:38:57.603Z,20.30
2022-09-04T16:41:40.809Z,20.23
2022-09-04T16:44:25.673Z,20.17
2022-09-04T16:47:10.576Z,20.12
2022-09-04T16:49:47.286Z,20.06
2022-09-04T16:52:36.491Z,20.01
2022-09-04T16:55:15.428Z,19.96
2022-09-04T16:57:43.968Z,19.91
2022-09-04T17:00:14.797Z,19.86
2022-09-04T17:03:17.911Z,19.81
2022-09-04T17:05:57.343Z,19.76
2022-09-04T17:08:43.400Z,19.70
2022-09-04T17:11:29.711Z,19.61
2022-09-04T17:14:12.698Z,19.50
2022-09-04T17:16:59.496Z,19.38
2022-09-04T17:19:28.211Z,19.25
2022-09-04T17:29:02.864Z,19.13
2022-09-04T17:29:17.547Z,18.99
2022-09-04T17:29:19.381Z,18.85
2022-09-04T17:31:33.312Z,18.71
2022-09-04T17:40:36.705Z,18.46
2022-09-04T17:40:48.305Z,18.57
2022-09-04T17:41:30.014Z,18.37
2022-09-04T17:44:02.067Z,18.28
2022-09-04T17:46:44.110Z,18.21
2022-09-04T17:49:14.542Z,18.16
2022-09-04T17:51:58.296Z,18.13
2022-09-04T17:54:39.294Z,18.10
2022-09-04T17:57:19.574Z,18.07
2022-09-04T17:59:55.046Z,18.01
2022-09-04T18:02:37.495Z,17.94
2022-09-04T18:05:16.155Z,17.87
2022-09-04T18:08:09.629Z,17.77
2022-09-04T18:10:52.991Z,17.66
2022-09-04T18:13:37.919Z,17.56
2022-09-04T18:16:27.662Z,17.46
2022-09-04T18:19:14.299Z,17.36
2022-09-04T18:22:24.993Z,17.29
2022-09-04T18:24:51.623Z,17.24
2022-09-04T18:27:22.591Z,17.21
2022-09-04T18:36:15.606Z,17.19
2022-09-04T18:37:20.407Z,17.13
2022-09-04T18:37:24.928Z,17.17
2022-09-04T18:39:21.349Z,17.11
2022-09-04T18:50:39.336Z,17.09
2022-09-04T18:50:43.483Z,17.01
2022-09-04T18:50:50.079Z,17.07
2022-09-04T18:53:53.176Z,16.86
2022-09-04T18:56:28.476Z,16.79
2022-09-04T18:59:14.920Z,16.71
2022-09-04T19:01:42.813Z,16.64
2022-09-04T19:05:01.546Z,16.58
2022-09-04T19:07:43.134Z,16.49
2022-09-04T19:10:22.819Z,16.44
2022-09-04T19:12:50.808Z,16.39
2022-09-04T19:15:36.854Z,16.35
2022-09-04T19:18:18.283Z,16.31
2022-09-04T19:21:14.872Z,16.28
2022-09-04T19:23:50.035Z,16.26
2022-09-04T19:26:26.531Z,16.24
2022-09-04T19:29:15.967Z,16.24
2022-09-04T19:32:01.819Z,16.23
2022-09-04T19:34:38.889Z,16.22
2022-09-04T19:39:01.596Z,16.20
2022-09-04T19:46:02.565Z,16.17
2022-09-04T19:46:04.177Z,16.13
2022-09-04T19:46:29.929Z,16.06
2022-09-04T19:50:06.653Z,15.99
2022-09-04T19:53:24.517Z,15.91
2022-09-04T19:55:23.824Z,15.83
2022-09-04T19:57:53.272Z,15.76
2022-09-04T20:00:43.113Z,15.71
2022-09-04T20:03:28.936Z,15.66
2022-09-04T20:06:20.816Z,15.63
2022-09-04T20:08:58.468Z,15.59
2022-09-04T20:11:43.907Z,15.58
2022-09-04T20:14:45.654Z,15.57
2022-09-04T20:17:31.763Z,15.56
2022-09-04T20:20:06.607Z,15.54
2022-09-04T20:22:50.360Z,15.52
2022-09-04T20:25:21.305Z,15.50
2022-09-04T20:27:58.753Z,15.49
2022-09-04T20:30:30.053Z,15.47
2022-09-04T20:33:08.381Z,15.45
2022-09-04T20:35:52.501Z,15.42
2022-09-04T20:38:33.162Z,15.39
2022-09-04T20:41:19.051Z,15.35
2022-09-04T20:44:08.916Z,15.30
2022-09-04T20:52:42.609Z,15.24
2022-09-04T20:53:05.003Z,15.19
2022-09-04T20:53:12.365Z,15.16
2022-09-04T20:56:15.327Z,15.15
2022-09-04T21:03:12.996Z,15.14
2022-09-04T21:03:20.469Z,15.14
2022-09-04T21:05:37.331Z,15.16
2022-09-04T21:08:10.735Z,15.16
2022-09-04T21:11:10.279Z,15.16
2022-09-04T21:13:59.349Z,15.17
2022-09-04T21:16:33.298Z,15.18
2022-09-04T21:19:28.559Z,15.19
2022-09-04T21:22:33.402Z,15.20
2022-09-04T21:25:33.237Z,15.20
2022-09-04T21:28:25.889Z,15.21
2022-09-04T21:30:56.781Z,15.21
2022-09-04T21:33:48.551Z,15.20
2022-09-04T21:36:27.613Z,15.21
2022-09-04T21:39:29.658Z,15.21
2022-09-04T21:41:57.498Z,15.21
2022-09-04T21:44:45.444Z,15.20
2022-09-04T21:47:32.767Z,15.22
2022-09-04T21:50:23.262Z,15.24
2022-09-04T21:53:35.421Z,15.27
2022-09-04T21:59:04.631Z,15.31
2022-09-04T22:02:41.527Z,15.36
2022-09-04T22:02:55.678Z,15.41
2022-09-04T22:05:38.876Z,15.44
2022-09-04T22:13:26.767Z,15.44
2022-09-04T22:13:41.679Z,15.43
2022-09-04T22:14:52.227Z,15.46
2022-09-04T22:17:41.696Z,15.47
2022-09-04T22:20:43.279Z,15.47
2022-09-04T22:23:59.610Z,15.47
2022-09-04T22:26:33.177Z,15.47
2022-09-04T22:29:40.036Z,15.49
2022-09-04T22:32:47.119Z,15.49
2022-09-04T22:35:24.339Z,15.49
2022-09-04T22:38:48.725Z,15.49
2022-09-04T22:41:22.709Z,15.52
2022-09-04T22:43:56.363Z,15.55
2022-09-04T22:46:30.896Z,15.57
2022-09-04T22:49:29.256Z,15.60
2022-09-04T22:52:11.362Z,15.62
2022-09-04T22:54:42.165Z,15.63
2022-09-04T22:57:17.070Z,15.63
2022-09-04T23:00:12.309Z,15.60
2022-09-04T23:03:09.228Z,15.57
2022-09-04T23:06:56.429Z,15.53
2022-09-04T23:13:42.711Z,15.49
2022-09-04T23:13:47.522Z,15.45
2022-09-04T23:15:28.853Z,15.44
2022-09-04T23:19:50.218Z,15.42
2022-09-04T23:26:33.564Z,15.44
2022-09-04T23:26:44.144Z,15.45
2022-09-04T23:27:52.216Z,15.46
2022-09-04T23:30:25.262Z,15.44
2022-09-04T23:32:54.841Z,15.45
2022-09-04T23:36:05.827Z,15.45
2022-09-04T23:39:24.113Z,15.44
2022-09-04T23:42:34.569Z,15.41
2022-09-04T23:45:19.795Z,15.38
2022-09-04T23:48:41.215Z,15.33
2022-09-04T23:51:58.171Z,15.25
2022-09-04T23:55:20.510Z,15.18
2022-09-04T23:58:51.882Z,15.12
